createdAt,value
2023-03-10T00:04:53.101Z,8.34
2023-03-10T00:10:00.763Z,8.34
2023-03-10T00:15:06.399Z,8.35
2023-03-10T00:20:15.953Z,8.35
2023-03-10T00:25:23.474Z,8.37
2023-03-10T00:30:30.680Z,8.35
2023-03-10T00:35:38.953Z,8.35
2023-03-10T00:40:46.565Z,8.33
2023-03-10T00:45:51.434Z,8.25
2023-03-10T00:50:56.700Z,8.34
2023-03-10T00:56:08.124Z,8.40
2023-03-10T01:01:16.965Z,8.52
2023-03-10T01:06:22.083Z,8.62
2023-03-10T01:11:32.066Z,8.58
2023-03-10T01:16:37.484Z,8.64
2023-03-10T01:21:42.866Z,8.71
2023-03-10T01:26:50.703Z,8.77
2023-03-10T01:31:55.797Z,8.73
2023-03-10T01:37:01.741Z,8.61
2023-03-10T01:42:09.479Z,8.49
2023-03-10T01:47:14.469Z,8.56
2023-03-10T01:52:23.286Z,8.63
2023-03-10T01:57:36.540Z,8.73
2023-03-10T02:02:45.865Z,8.64
2023-03-10T02:07:51.340Z,8.65
2023-03-10T02:13:01.717Z,8.60
2023-03-10T02:18:11.104Z,8.62
2023-03-10T02:23:26.140Z,8.72
2023-03-10T02:28:34.505Z,8.79
2023-03-10T02:33:40.373Z,8.78
2023-03-10T02:38:45.421Z,8.93
2023-03-10T02:43:54.239Z,9.05
2023-03-10T02:49:06.283Z,9.12
2023-03-10T02:54:18.710Z,9.07
2023-03-10T02:59:26.423Z,9.10
2023-03-10T03:04:32.787Z,9.06
2023-03-10T03:09:38.168Z,9.04
2023-03-10T03:14:46.305Z,8.99
2023-03-10T03:19:51.900Z,8.92
2023-03-10T03:24:58.525Z,8.91
2023-03-10T03:30:07.255Z,8.92
2023-03-10T03:35:16.184Z,8.94
2023-03-10T03:40:25.062Z,8.97
2023-03-10T03:45:34.569Z,9.04
2023-03-10T03:50:40.221Z,9.03
2023-03-10T03:55:55.459Z,9.02
2023-03-10T04:01:07.327Z,9.09
2023-03-10T04:06:18.902Z,9.06
2023-03-10T04:11:27.195Z,8.93
2023-03-10T04:16:37.095Z,8.85
2023-03-10T04:21:43.218Z,8.85
2023-03-10T04:26:49.495Z,8.83
2023-03-10T04:32:05.300Z,8.78
2023-03-10T04:37:15.799Z,8.74
2023-03-10T04:42:21.383Z,8.82
2023-03-10T04:47:30.245Z,8.97
2023-03-10T04:52:35.994Z,9.15
2023-03-10T04:57:42.422Z,9.30
2023-03-10T05:02:53.928Z,9.37
2023-03-10T05:07:59.156Z,9.45
2023-03-10T05:13:04.386Z,9.55
2023-03-10T05:18:14.252Z,9.55
2023-03-10T05:23:19.396Z,9.56
2023-03-10T05:28:24.521Z,9.56
2023-03-10T05:33:33.995Z,9.51
2023-03-10T05:38:41.035Z,9.49
2023-03-10T05:43:50.431Z,9.44
2023-03-10T05:49:00.296Z,9.39
2023-03-10T05:54:09.886Z,9.36
2023-03-10T05:59:17.209Z,9.28
2023-03-10T06:04:25.601Z,9.26
2023-03-10T06:09:31.562Z,9.24
2023-03-10T06:14:36.577Z,9.23
2023-03-10T06:19:44.421Z,9.19
2023-03-10T06:24:52.547Z,9.24
2023-03-10T06:30:01.402Z,9.32
2023-03-10T06:35:09.710Z,9.35
2023-03-10T06:40:17.386Z,9.45
2023-03-10T06:45:22.842Z,9.46
2023-03-10T06:50:31.771Z,9.49
2023-03-10T06:55:40.750Z,9.55
2023-03-10T07:00:49.923Z,9.59
2023-03-10T07:05:58.488Z,9.67
2023-03-10T07:11:03.494Z,9.72
2023-03-10T07:16:12.129Z,9.74
2023-03-10T07:21:22.417Z,9.77
2023-03-10T07:26:27.775Z,9.79
2023-03-10T07:31:32.891Z,9.87
2023-03-10T07:36:40.771Z,9.92
2023-03-10T07:41:46.126Z,10.34
2023-03-10T07:46:52.271Z,10.10
2023-03-10T07:52:00.039Z,10.16
2023-03-10T07:57:05.630Z,10.22
2023-03-10T08:02:17.609Z,10.37
2023-03-10T08:07:27.683Z,10.47
2023-03-10T08:12:34.362Z,10.62
2023-03-10T08:17:40.834Z,11.97
2023-03-10T08:22:51.025Z,11.24
2023-03-10T08:27:56.278Z,12.04
2023-03-10T08:33:01.520Z,12.96
2023-03-10T08:38:09.950Z,14.95
2023-03-10T08:43:15.036Z,13.41
2023-03-10T08:48:21.294Z,13.50
2023-03-10T08:53:31.340Z,13.99
2023-03-10T08:58:37.229Z,13.64
2023-03-10T09:03:46.631Z,14.71
2023-03-10T09:08:54.764Z,15.68
2023-03-10T09:14:02.508Z,15.24
2023-03-10T09:19:11.207Z,17.39
2023-03-10T09:24:20.918Z,16.69
2023-03-10T09:29:42.247Z,17.91
2023-03-10T09:34:48.468Z,16.29
2023-03-10T09:39:56.466Z,17.68
2023-03-10T09:45:17.456Z,16.18
2023-03-10T09:50:31.666Z,14.59
2023-03-10T09:55:47.969Z,15.14
2023-03-10T10:00:53.941Z,16.75
2023-03-10T10:06:03.399Z,15.95
2023-03-10T10:11:17.271Z,16.54
2023-03-10T10:16:34.865Z,16.51
2023-03-10T10:21:50.897Z,15.41
2023-03-10T10:27:00.101Z,15.80
2023-03-10T10:32:10.844Z,15.68
2023-03-10T10:37:30.077Z,15.60
2023-03-10T10:42:38.151Z,15.65
2023-03-10T10:47:55.323Z,14.88
2023-03-10T10:53:20.614Z,14.69
2023-03-10T10:58:33.778Z,14.47
2023-03-10T11:03:40.920Z,14.58
2023-03-10T11:08:51.343Z,14.78
2023-03-10T11:14:22.640Z,14.09
2023-03-10T11:19:35.109Z,14.85
2023-03-10T11:24:47.173Z,14.89
2023-03-10T11:30:07.488Z,14.97
2023-03-10T11:35:27.232Z,14.31
2023-03-10T11:40:37.855Z,14.41
2023-03-10T11:45:53.663Z,15.07
2023-03-10T11:51:03.092Z,15.08
2023-03-10T11:56:12.028Z,15.40
2023-03-10T12:01:25.193Z,14.74
2023-03-10T12:06:38.000Z,14.83
2023-03-10T12:11:43.069Z,15.46
2023-03-10T12:16:51.691Z,15.51
2023-03-10T12:22:32.762Z,15.60
2023-03-10T12:28:22.504Z,16.43
2023-03-10T12:34:00.246Z,15.29
2023-03-10T12:39:28.751Z,15.19
2023-03-10T12:44:47.252Z,14.78
2023-03-10T12:49:58.221Z,14.79
2023-03-10T12:55:24.341Z,14.95
2023-03-10T13:00:45.655Z,14.09
2023-03-10T13:06:07.113Z,14.49
2023-03-10T13:11:27.210Z,14.19
2023-03-10T13:16:32.756Z,14.92
2023-03-10T13:21:42.693Z,15.19
2023-03-10T13:26:50.707Z,15.72
2023-03-10T13:31:59.283Z,15.63
2023-03-10T13:37:17.004Z,15.88
2023-03-10T13:42:43.322Z,16.70
2023-03-10T13:47:49.034Z,16.78
2023-03-10T13:52:59.801Z,15.64
2023-03-10T13:58:11.019Z,15.76
2023-03-10T14:03:23.658Z,15.71
2023-03-10T14:08:32.877Z,15.70
2023-03-10T14:13:48.207Z,15.14
2023-03-10T14:19:00.827Z,15.01
2023-03-10T14:24:08.281Z,15.47
2023-03-10T14:29:30.958Z,15.08
2023-03-10T14:34:38.352Z,14.85
2023-03-10T14:39:46.396Z,14.74
2023-03-10T14:44:56.377Z,12.51
2023-03-10T14:50:01.414Z,11.44
2023-03-10T14:55:09.400Z,11.05
2023-03-10T15:00:22.415Z,10.26
2023-03-10T15:05:48.974Z,10.16
2023-03-10T15:10:56.220Z,9.90
2023-03-10T15:16:04.886Z,10.07
2023-03-10T15:21:10.900Z,10.62
2023-03-10T15:26:19.951Z,10.82
2023-03-10T15:31:29.052Z,10.72
2023-03-10T15:36:34.325Z,11.14
2023-03-10T15:41:42.618Z,11.23
2023-03-10T15:46:54.975Z,11.22
2023-03-10T15:52:00.504Z,11.27
2023-03-10T15:57:08.540Z,11.26
2023-03-10T16:02:20.129Z,11.06
2023-03-10T16:07:26.317Z,10.70
2023-03-10T16:12:33.932Z,10.86
2023-03-10T16:17:45.856Z,10.74
2023-03-10T16:22:50.803Z,10.87
2023-03-10T16:27:58.096Z,11.06
2023-03-10T16:33:06.774Z,10.96
2023-03-10T16:38:12.814Z,10.82
2023-03-10T16:43:17.819Z,10.72
2023-03-10T16:48:25.490Z,10.42
2023-03-10T16:53:32.099Z,10.66
2023-03-10T16:58:38.445Z,10.51
2023-03-10T17:03:47.080Z,10.41
2023-03-10T17:08:54.292Z,10.61
2023-03-10T17:14:01.280Z,10.39
2023-03-10T17:19:14.363Z,10.23
2023-03-10T17:24:23.590Z,10.32
2023-03-10T17:29:30.096Z,10.19
2023-03-10T17:34:37.833Z,10.13
2023-03-10T17:39:44.377Z,10.11
2023-03-10T17:44:51.964Z,9.88
2023-03-10T17:50:02.232Z,9.95
2023-03-10T17:55:08.067Z,9.91
2023-03-10T18:00:15.965Z,9.80
2023-03-10T18:05:24.495Z,9.91
2023-03-10T18:10:34.526Z,9.75
2023-03-10T18:15:41.315Z,9.66
2023-03-10T18:20:48.937Z,9.55
2023-03-10T18:25:54.565Z,9.33
2023-03-10T18:31:06.927Z,9.28
2023-03-10T18:36:17.220Z,9.27
2023-03-10T18:41:24.384Z,9.29
2023-03-10T18:46:29.613Z,9.08
2023-03-10T18:51:37.584Z,9.19
2023-03-10T18:56:44.998Z,9.14
2023-03-10T19:02:00.648Z,9.16
2023-03-10T19:07:12.842Z,8.90
2023-03-10T19:12:23.523Z,9.07
2023-03-10T19:17:29.662Z,9.25
2023-03-10T19:22:39.592Z,9.10
2023-03-10T19:27:48.958Z,9.25
2023-03-10T19:32:54.608Z,9.21
2023-03-10T19:38:04.154Z,9.22
2023-03-10T19:43:09.312Z,9.25
2023-03-10T19:48:17.433Z,9.20
2023-03-10T19:53:25.174Z,9.14
2023-03-10T19:58:40.744Z,8.86
2023-03-10T20:03:45.994Z,8.88
2023-03-10T20:08:54.718Z,8.75
2023-03-10T20:14:00.454Z,8.85
2023-03-10T20:19:06.209Z,8.83
2023-03-10T20:24:14.431Z,8.77
2023-03-10T20:29:22.232Z,8.80
2023-03-10T20:34:28.314Z,8.77
2023-03-10T20:39:36.127Z,8.47
2023-03-10T20:44:45.668Z,8.35
2023-03-10T20:49:51.070Z,8.45
2023-03-10T20:54:59.039Z,8.37
2023-03-10T21:00:06.835Z,8.10
2023-03-10T21:05:16.144Z,7.84
2023-03-10T21:10:28.970Z,7.62
2023-03-10T21:15:34.061Z,7.61
2023-03-10T21:20:41.564Z,7.51
2023-03-10T21:25:50.708Z,7.54
2023-03-10T21:30:56.898Z,7.61
2023-03-10T21:36:03.358Z,7.42
2023-03-10T21:41:11.492Z,7.54
2023-03-10T21:46:17.128Z,7.25
2023-03-10T21:51:25.907Z,7.23
2023-03-10T21:56:33.564Z,7.11
2023-03-10T22:01:40.916Z,7.16
2023-03-10T22:06:51.256Z,7.03
2023-03-10T22:12:01.642Z,7.02
2023-03-10T22:17:09.861Z,6.98
2023-03-10T22:22:18.073Z,7.17
2023-03-10T22:27:27.247Z,6.89
2023-03-10T22:32:32.893Z,6.95
2023-03-10T22:37:38.100Z,6.69
2023-03-10T22:42:52.067Z,6.78
2023-03-10T22:48:03.056Z,6.57
2023-03-10T22:53:11.015Z,6.50
2023-03-10T22:58:27.756Z,6.63
2023-03-10T23:03:32.864Z,6.44
2023-03-10T23:08:41.234Z,6.23
2023-03-10T23:13:49.164Z,6.23
2023-03-10T23:18:57.691Z,6.01
2023-03-10T23:24:05.353Z,5.96
2023-03-10T23:29:14.013Z,5.94
2023-03-10T23:34:19.152Z,5.97
2023-03-10T23:39:24.189Z,5.87
2023-03-10T23:44:35.625Z,5.95
2023-03-10T23:49:43.034Z,5.56
2023-03-10T23:54:48.370Z,4.17
2023-03-10T23:59:55.991Z,3.92
